Terminal Aerodrome Forecast
Issued by NWS Sterling, VA

Current Version | Previous Version | Text Only | Print | Product List | Glossary Off
Versions: 1 2 3 4 5 6 7 8 9 10 11 12 13 14 15 16 17 18 19 20 21 22 23 24 25 26

017
FTUS41 KLWX 301721
TAFIAD
TAF
KIAD 301721Z 3018/0124 13005KT P6SM OVC025
     FM302000 15007KT P6SM OVC045
     FM010000 13007KT P6SM -RA OVC025
     FM010300 13009KT P6SM -RA OVC008
     FM011200 14010KT 2SM -RA BR OVC003
     FM011800 18007KT 3SM -SHRA OVC008
     FM012100 18007KT P6SM -SHRA OVC008=

USA.gov is the U.S. government's official web portal to all federal, state and local government web resources and services.